createdAt,value
2019-04-23T00:00:21.919Z,11.87
2019-04-23T00:02:53.428Z,11.07
2019-04-23T00:05:30.503Z,14.83
2019-04-23T00:07:56.199Z,12.13
2019-04-23T00:10:28.624Z,10.30
2019-04-23T00:12:53.060Z,11.07
2019-04-23T00:15:23.834Z,12.80
2019-04-23T00:18:10.135Z,12.87
2019-04-23T00:20:27.232Z,12.27
2019-04-23T00:23:06.422Z,13.93
2019-04-23T00:25:51.046Z,12.80
2019-04-23T00:28:16.118Z,15.20
2019-04-23T00:30:43.212Z,14.23
2019-04-23T00:33:12.585Z,11.13
2019-04-23T00:35:38.850Z,14.43
2019-04-23T00:38:11.997Z,10.90
2019-04-23T00:40:40.611Z,12.17
2019-04-23T00:43:09.181Z,11.87
2019-04-23T00:48:18.311Z,12.63
2019-04-23T00:50:53.036Z,12.07
2019-04-23T00:53:13.788Z,15.93
2019-04-23T00:55:42.572Z,10.30
2019-04-23T01:03:12.563Z,12.10
2019-04-23T01:06:02.314Z,14.67
2019-04-23T01:08:18.532Z,9.60
2019-04-23T01:10:56.256Z,10.63
2019-04-23T01:15:59.578Z,10.90
2019-04-23T01:18:38.172Z,29.97
2019-04-23T01:20:54.832Z,13.03
2019-04-23T01:23:13.808Z,11.33
2019-04-23T01:25:58.157Z,11.20
2019-04-23T01:28:53.813Z,11.70
2019-04-23T01:31:18.270Z,12.90
2019-04-23T01:33:46.640Z,13.93
2019-04-23T01:36:21.445Z,15.73
2019-04-23T01:38:46.179Z,12.20
2019-04-23T01:41:12.906Z,13.17
2019-04-23T01:46:16.210Z,11.17
2019-04-23T01:48:48.180Z,14.50
2019-04-23T01:51:19.033Z,13.00
2019-04-23T01:53:49.650Z,10.40
2019-04-23T01:56:19.454Z,12.97
2019-04-23T02:01:18.677Z,10.23
2019-04-23T02:06:22.103Z,12.80
2019-04-23T02:08:55.285Z,10.13
2019-04-23T02:11:23.204Z,13.00
2019-04-23T02:13:55.584Z,13.17
2019-04-23T02:16:27.606Z,10.83
2019-04-23T02:21:41.334Z,9.10
2019-04-23T02:24:12.693Z,9.67
2019-04-23T02:29:25.664Z,8.97
2019-04-23T02:32:03.620Z,10.60
2019-04-23T02:34:31.234Z,9.60
2019-04-23T02:39:26.399Z,12.30
2019-04-23T02:42:07.913Z,9.53
2019-04-23T02:44:36.012Z,10.83
2019-04-23T02:47:03.463Z,9.67
2019-04-23T02:49:44.336Z,7.83
2019-04-23T02:54:37.440Z,11.90
2019-04-23T02:57:08.802Z,7.60
2019-04-23T03:02:05.832Z,10.77
2019-04-23T03:07:03.231Z,9.87
2019-04-23T03:14:35.306Z,13.50
2019-04-23T03:22:15.791Z,8.17
2019-04-23T03:25:03.934Z,9.67
2019-04-23T03:27:23.316Z,9.77
2019-04-23T03:39:56.768Z,9.03
2019-04-23T03:42:17.308Z,8.43
2019-04-23T03:45:00.624Z,8.13
2019-04-23T03:47:24.962Z,9.60
2019-04-23T03:50:02.514Z,12.37
2019-04-23T03:52:31.341Z,12.07
2019-04-23T03:55:01.217Z,9.23
2019-04-23T03:57:24.549Z,8.60
2019-04-23T03:59:58.932Z,11.10
2019-04-23T04:02:42.042Z,8.60
2019-04-23T04:04:44.589Z,9.27
2019-04-23T04:12:30.043Z,10.40
2019-04-23T04:15:18.346Z,9.93
2019-04-23T04:19:56.311Z,7.53
2019-04-23T04:22:46.637Z,12.03
2019-04-23T04:25:03.256Z,9.20
2019-04-23T04:30:01.252Z,13.17
2019-04-23T04:32:47.257Z,10.13
2019-04-23T04:40:05.135Z,6.40
2019-04-23T04:42:27.459Z,11.13
2019-04-23T04:47:35.411Z,9.20
2019-04-23T04:55:03.265Z,8.93
2019-04-23T04:57:36.528Z,9.40
2019-04-23T05:03:02.746Z,7.13
2019-04-23T05:05:29.758Z,8.07
2019-04-23T05:07:34.069Z,12.87
2019-04-23T05:12:32.582Z,7.53
2019-04-23T05:18:03.588Z,12.63
2019-04-23T05:20:13.159Z,11.30
2019-04-23T05:25:04.177Z,14.03
2019-04-23T05:27:47.162Z,8.73
2019-04-23T05:30:22.552Z,13.47
2019-04-23T05:32:41.208Z,13.67
2019-04-23T05:35:13.614Z,10.87
2019-04-23T05:37:50.461Z,13.07
2019-04-23T05:40:18.433Z,8.83
2019-04-23T05:42:44.478Z,15.13
2019-04-23T05:45:09.790Z,13.57
2019-04-23T05:47:48.199Z,13.03
2019-04-23T05:50:21.545Z,10.00
2019-04-23T05:52:47.910Z,8.27
2019-04-23T05:55:13.349Z,10.13
2019-04-23T05:57:43.783Z,13.03
2019-04-23T06:00:17.472Z,11.93
2019-04-23T06:02:50.119Z,12.10
2019-04-23T06:05:19.227Z,8.27
2019-04-23T06:07:47.779Z,8.17
2019-04-23T06:10:18.105Z,15.87
2019-04-23T06:12:47.190Z,9.83
2019-04-23T06:15:20.160Z,8.57
2019-04-23T06:17:47.704Z,12.67
2019-04-23T06:20:21.944Z,8.13
2019-04-23T06:22:51.151Z,7.80
2019-04-23T06:25:33.789Z,10.57
2019-04-23T06:28:08.257Z,11.10
2019-04-23T06:31:01.615Z,7.60
2019-04-23T06:32:52.456Z,8.70
2019-04-23T06:35:15.224Z,10.13
2019-04-23T06:38:14.668Z,8.53
2019-04-23T06:40:23.554Z,7.63
2019-04-23T06:42:52.133Z,9.13
2019-04-23T06:45:22.091Z,5.90
2019-04-23T06:47:55.540Z,10.77
2019-04-23T06:50:19.540Z,9.03
2019-04-23T06:52:50.669Z,10.70
2019-04-23T06:57:58.764Z,14.50
2019-04-23T07:00:28.651Z,8.13
2019-04-23T07:02:53.853Z,7.87
2019-04-23T07:05:47.628Z,10.00
2019-04-23T07:07:58.347Z,9.90
2019-04-23T07:10:29.898Z,12.63
2019-04-23T07:12:59.715Z,10.03
2019-04-23T07:15:46.540Z,12.40
2019-04-23T07:17:58.769Z,7.40
2019-04-23T07:20:28.687Z,10.30
2019-04-23T07:23:10.615Z,7.10
2019-04-23T07:25:32.753Z,7.93
2019-04-23T07:27:59.443Z,8.10
2019-04-23T07:33:05.677Z,16.30
2019-04-23T07:35:30.551Z,11.97
2019-04-23T07:38:38.845Z,10.67
2019-04-23T07:41:12.017Z,12.77
2019-04-23T07:43:42.530Z,11.23
2019-04-23T07:46:20.278Z,12.43
2019-04-23T07:48:43.985Z,11.40
2019-04-23T07:51:16.175Z,14.37
2019-04-23T07:53:46.536Z,15.00
2019-04-23T07:56:15.560Z,10.30
2019-04-23T07:58:39.302Z,15.57
2019-04-23T08:01:14.169Z,12.23
2019-04-23T08:03:48.131Z,13.53
2019-04-23T08:06:15.574Z,13.23
2019-04-23T08:08:52.027Z,9.97
2019-04-23T08:13:53.649Z,15.23
2019-04-23T08:16:29.429Z,12.67
2019-04-23T08:23:55.469Z,14.43
2019-04-23T08:29:06.208Z,15.03
2019-04-23T08:31:33.612Z,14.27
2019-04-23T08:34:05.752Z,11.63
2019-04-23T08:36:34.512Z,16.23
2019-04-23T08:38:57.536Z,14.53
2019-04-23T08:41:33.773Z,11.40
2019-04-23T08:44:24.067Z,12.03
2019-04-23T08:49:29.579Z,13.73
2019-04-23T08:52:10.509Z,14.70
2019-04-23T08:54:42.934Z,12.83
2019-04-23T08:57:02.726Z,10.70
2019-04-23T09:02:18.880Z,9.33
2019-04-23T09:04:30.826Z,14.23
2019-04-23T09:07:04.826Z,13.63
2019-04-23T09:09:34.749Z,10.97
2019-04-23T09:12:04.469Z,13.73
2019-04-23T09:14:34.409Z,15.43
2019-04-23T09:17:04.615Z,13.90
2019-04-23T09:19:51.899Z,12.63
2019-04-23T09:22:07.187Z,13.43
2019-04-23T09:24:32.677Z,13.23
2019-04-23T09:27:05.623Z,14.17
2019-04-23T09:35:06.012Z,13.63
2019-04-23T09:37:44.148Z,12.90
2019-04-23T09:40:27.508Z,16.27
2019-04-23T09:42:54.557Z,10.67
2019-04-23T09:45:34.221Z,9.80
2019-04-23T09:48:01.410Z,16.20
2019-04-23T09:55:38.484Z,16.40
2019-04-23T09:58:11.733Z,14.70
2019-04-23T10:00:41.972Z,20.20
2019-04-23T10:03:01.613Z,17.07
2019-04-23T10:05:28.777Z,17.07
2019-04-23T10:07:54.412Z,14.40
2019-04-23T10:10:16.434Z,14.27
2019-04-23T10:12:46.069Z,13.00
2019-04-23T10:15:22.815Z,15.77
2019-04-23T10:17:46.421Z,15.20
2019-04-23T10:20:16.400Z,13.70
2019-04-23T10:22:46.279Z,15.43
2019-04-23T10:25:15.346Z,15.63
2019-04-23T10:27:45.245Z,16.53
2019-04-23T10:30:14.557Z,17.67
2019-04-23T10:32:43.343Z,19.97
2019-04-23T10:35:22.249Z,16.77
2019-04-23T10:37:49.113Z,11.60
2019-04-23T10:40:19.391Z,13.97
2019-04-23T10:42:46.030Z,10.97
2019-04-23T10:45:37.014Z,16.30
2019-04-23T10:48:28.074Z,14.30
2019-04-23T10:51:10.377Z,17.47
2019-04-23T10:53:30.060Z,18.43
2019-04-23T10:55:54.141Z,17.33
2019-04-23T10:58:34.935Z,17.33
2019-04-23T11:01:01.535Z,16.63
2019-04-23T11:03:42.114Z,15.33
2019-04-23T11:05:59.073Z,16.03
2019-04-23T11:08:27.771Z,14.43
2019-04-23T11:10:58.682Z,16.50
2019-04-23T11:13:43.398Z,18.73
2019-04-23T11:18:45.432Z,15.70
2019-04-23T11:21:09.159Z,16.53
2019-04-23T11:23:34.548Z,17.03
2019-04-23T11:26:07.803Z,20.37
2019-04-23T11:28:37.799Z,16.27
2019-04-23T11:31:12.028Z,19.73
2019-04-23T11:33:40.058Z,14.53
2019-04-23T11:36:45.872Z,24.17
2019-04-23T11:41:12.645Z,15.67
2019-04-23T11:43:42.405Z,16.10
2019-04-23T11:46:34.055Z,19.53
2019-04-23T11:48:52.291Z,17.33
2019-04-23T11:53:48.130Z,18.90
2019-04-23T11:56:22.846Z,20.70
2019-04-23T11:58:42.603Z,21.30
2019-04-23T12:01:37.114Z,15.37
2019-04-23T12:04:05.233Z,21.23
2019-04-23T12:06:44.465Z,16.03
2019-04-23T12:09:40.307Z,15.90
2019-04-23T12:12:10.783Z,15.23
2019-04-23T12:14:37.501Z,17.10
2019-04-23T12:17:09.151Z,14.10
2019-04-23T12:19:52.988Z,13.30
2019-04-23T12:22:01.034Z,15.67
2019-04-23T12:27:04.135Z,18.30
2019-04-23T12:29:35.374Z,22.17
2019-04-23T12:32:35.980Z,16.03
2019-04-23T12:34:55.652Z,17.10
2019-04-23T12:37:21.475Z,20.27
2019-04-23T12:39:51.123Z,20.77
2019-04-23T12:42:45.349Z,18.80
2019-04-23T12:44:58.024Z,16.47
2019-04-23T12:47:41.644Z,19.40
2019-04-23T12:50:05.433Z,19.87
2019-04-23T12:52:30.731Z,20.80
2019-04-23T12:59:50.381Z,18.60
2019-04-23T13:02:34.319Z,18.70
2019-04-23T13:04:57.379Z,21.53
2019-04-23T13:07:36.419Z,22.77
2019-04-23T13:09:59.361Z,17.70
2019-04-23T13:12:40.014Z,21.87
2019-04-23T13:14:57.644Z,15.53
2019-04-23T13:17:39.711Z,17.83
2019-04-23T13:22:36.057Z,15.77
2019-04-23T13:25:02.047Z,20.13
2019-04-23T13:27:54.348Z,28.97
2019-04-23T13:30:25.354Z,19.17
2019-04-23T13:32:55.302Z,16.93
2019-04-23T13:35:28.011Z,21.00
2019-04-23T13:37:56.923Z,17.27
2019-04-23T13:40:24.749Z,18.50
2019-04-23T13:42:52.423Z,17.73
2019-04-23T13:45:53.596Z,21.60
2019-04-23T13:47:59.693Z,16.13
2019-04-23T13:50:33.028Z,16.43
2019-04-23T13:55:14.437Z,19.40
2019-04-23T14:00:44.660Z,20.00
2019-04-23T14:02:52.524Z,17.73
2019-04-23T14:07:54.528Z,16.13
2019-04-23T14:10:29.443Z,19.53
2019-04-23T14:13:10.542Z,20.27
2019-04-23T14:18:20.837Z,22.23
2019-04-23T14:20:28.000Z,17.97
2019-04-23T14:23:08.346Z,16.43
2019-04-23T14:25:34.386Z,19.27
2019-04-23T14:28:13.993Z,20.20
2019-04-23T14:30:37.300Z,20.23
2019-04-23T14:33:11.510Z,20.20
2019-04-23T14:35:45.397Z,18.00
2019-04-23T14:38:15.688Z,21.37
2019-04-23T14:40:43.192Z,20.97
2019-04-23T14:46:00.440Z,20.43
2019-04-23T14:50:44.226Z,17.93
2019-04-23T14:58:23.764Z,14.00
2019-04-23T15:01:07.242Z,22.07
2019-04-23T15:03:27.185Z,16.23
2019-04-23T15:08:25.281Z,13.68
2019-04-23T15:13:23.201Z,15.35
2019-04-23T15:16:02.979Z,16.77
2019-04-23T15:18:25.251Z,14.90
2019-04-23T15:21:34.144Z,18.37
2019-04-23T15:24:00.239Z,16.32
2019-04-23T15:27:02.372Z,14.55
2019-04-23T15:28:16.737Z,15.73
2019-04-23T15:31:28.318Z,17.23
2019-04-23T15:41:15.251Z,14.27
2019-04-23T15:43:54.596Z,15.20
2019-04-23T15:46:20.256Z,15.07
2019-04-23T15:48:57.066Z,24.57
2019-04-23T15:51:20.397Z,17.90
2019-04-23T15:53:44.613Z,14.33
2019-04-23T15:56:30.145Z,14.77
2019-04-23T15:59:14.081Z,16.20
2019-04-23T16:01:31.968Z,15.43
2019-04-23T16:03:26.698Z,18.43
2019-04-23T16:05:54.707Z,15.60
2019-04-23T16:09:04.880Z,20.67
2019-04-23T16:11:33.597Z,19.53
2019-04-23T16:14:10.868Z,16.57
2019-04-23T16:16:31.595Z,15.10
2019-04-23T16:19:05.483Z,18.27
2019-04-23T16:21:41.782Z,17.87
2019-04-23T16:24:00.722Z,21.03
2019-04-23T16:26:30.189Z,14.03
2019-04-23T16:31:34.931Z,17.80
2019-04-23T16:34:06.853Z,20.20
2019-04-23T16:36:32.857Z,16.63
2019-04-23T16:39:01.977Z,19.17
2019-04-23T16:41:30.963Z,13.43
2019-04-23T16:44:03.526Z,17.17
2019-04-23T16:46:31.941Z,12.37
2019-04-23T16:54:09.909Z,13.63
2019-04-23T16:59:17.915Z,19.93
2019-04-23T17:01:35.194Z,18.37
2019-04-23T17:04:12.043Z,20.17
2019-04-23T17:06:36.727Z,20.77
2019-04-23T17:09:10.235Z,17.43
2019-04-23T17:11:35.909Z,16.23
2019-04-23T17:19:16.510Z,19.13
2019-04-23T17:21:36.672Z,20.47
2019-04-23T17:26:35.772Z,16.73
2019-04-23T17:29:13.692Z,16.27
2019-04-23T17:34:17.573Z,19.53
2019-04-23T17:36:44.352Z,20.97
2019-04-23T17:39:18.263Z,20.57
2019-04-23T17:47:13.451Z,14.30
2019-04-23T17:49:42.589Z,13.17
2019-04-23T17:52:13.063Z,14.73
2019-04-23T17:54:53.476Z,13.97
2019-04-23T18:00:07.267Z,12.83
2019-04-23T18:07:38.350Z,17.23
2019-04-23T18:14:52.712Z,15.50
2019-04-23T18:17:26.733Z,14.03
2019-04-23T18:19:58.411Z,13.47
2019-04-23T18:22:35.520Z,14.80
2019-04-23T18:25:05.782Z,14.13
2019-04-23T18:27:31.394Z,15.30
2019-04-23T18:30:23.175Z,15.37
2019-04-23T18:35:24.351Z,13.57
2019-04-23T18:37:56.419Z,15.67
2019-04-23T18:40:28.715Z,16.27
2019-04-23T18:42:57.667Z,12.73
2019-04-23T18:45:33.919Z,12.77
2019-04-23T18:47:55.961Z,12.27
2019-04-23T18:50:39.714Z,13.97
2019-04-23T18:53:04.585Z,15.33
2019-04-23T18:55:49.131Z,13.93
2019-04-23T18:58:04.031Z,18.57
2019-04-23T19:00:49.942Z,20.53
2019-04-23T19:03:26.365Z,16.23
2019-04-23T19:06:18.708Z,14.07
2019-04-23T19:11:18.354Z,13.47
2019-04-23T19:13:42.114Z,15.47
2019-04-23T19:16:07.410Z,16.30
2019-04-23T19:18:41.604Z,14.50
2019-04-23T19:21:13.860Z,13.60
2019-04-23T19:23:47.659Z,14.27
2019-04-23T19:26:15.510Z,13.50
2019-04-23T19:28:55.923Z,20.33
2019-04-23T19:31:33.257Z,18.60
2019-04-23T19:34:18.219Z,19.03
2019-04-23T19:36:39.931Z,17.60
2019-04-23T19:39:11.063Z,16.33
2019-04-23T19:41:52.481Z,18.40
2019-04-23T19:44:08.501Z,17.10
2019-04-23T19:46:52.363Z,14.90
2019-04-23T19:51:42.996Z,16.77
2019-04-23T19:56:48.422Z,19.27
2019-04-23T19:59:01.895Z,22.23
2019-04-23T20:01:41.670Z,19.67
2019-04-23T20:04:04.463Z,21.07
2019-04-23T20:11:50.556Z,21.10
2019-04-23T20:14:44.332Z,25.77
2019-04-23T20:16:48.586Z,17.67
2019-04-23T20:19:18.778Z,21.20
2019-04-23T20:21:52.997Z,24.87
2019-04-23T20:26:50.775Z,21.53
2019-04-23T20:34:49.631Z,25.83
2019-04-23T20:36:57.797Z,20.37
2019-04-23T20:44:50.439Z,22.30
2019-04-23T20:47:11.496Z,24.63
2019-04-23T20:52:08.789Z,24.27
2019-04-23T20:57:44.078Z,22.07
2019-04-23T21:00:24.213Z,23.53
2019-04-23T21:03:08.252Z,22.63
2019-04-23T21:05:19.533Z,22.20
2019-04-23T21:07:54.129Z,19.30
2019-04-23T21:10:34.262Z,22.47
2019-04-23T21:20:24.511Z,23.57
2019-04-23T21:22:55.568Z,23.13
2019-04-23T21:25:27.489Z,17.87
2019-04-23T21:28:14.202Z,22.87
2019-04-23T21:33:34.090Z,21.13
2019-04-23T21:36:18.760Z,22.43
2019-04-23T21:39:04.279Z,16.93
2019-04-23T21:41:45.153Z,23.00
2019-04-23T21:46:36.823Z,20.77
2019-04-23T21:56:39.642Z,20.00
2019-04-23T22:04:39.868Z,22.17
2019-04-23T22:06:42.941Z,19.30
2019-04-23T22:21:45.324Z,20.10
2019-04-23T22:24:17.014Z,26.40
2019-04-23T22:26:38.104Z,20.87
2019-04-23T22:31:47.252Z,19.73
2019-04-23T22:34:17.614Z,19.10
2019-04-23T22:39:18.210Z,21.23
2019-04-23T22:46:56.194Z,21.53
2019-04-23T22:49:41.959Z,22.40
2019-04-23T22:51:56.902Z,21.23
2019-04-23T22:54:44.842Z,24.93
2019-04-23T22:56:54.766Z,19.73
2019-04-23T22:59:35.428Z,21.30
2019-04-23T23:02:01.266Z,21.87
2019-04-23T23:04:28.990Z,19.93
2019-04-23T23:07:03.023Z,22.43
2019-04-23T23:12:05.276Z,19.97
2019-04-23T23:14:38.493Z,25.03
2019-04-23T23:17:08.797Z,20.03
2019-04-23T23:19:40.410Z,23.30
2019-04-23T23:24:39.355Z,22.57
2019-04-23T23:29:42.010Z,24.07
2019-04-23T23:32:07.810Z,23.23
2019-04-23T23:34:54.309Z,25.93
2019-04-23T23:37:07.534Z,27.73
2019-04-23T23:39:52.517Z,22.37
2019-04-23T23:42:14.417Z,21.63
2019-04-23T23:47:21.196Z,23.37
2019-04-23T23:49:43.515Z,26.60
2019-04-23T23:52:15.670Z,25.63
2019-04-23T23:54:50.474Z,24.13
2019-04-23T23:57:16.544Z,25.83
